createdAt,value
2023-03-24T00:03:29.967Z,27.67
2023-03-24T00:08:36.882Z,21.87
2023-03-24T00:13:41.653Z,18.92
2023-03-24T00:18:43.397Z,22.70
2023-03-24T00:23:47.882Z,22.53
2023-03-24T00:28:49.776Z,19.23
2023-03-24T00:33:54.623Z,15.93
2023-03-24T00:38:58.005Z,19.50
2023-03-24T00:44:05.959Z,18.77
2023-03-24T00:49:12.294Z,16.27
2023-03-24T00:54:21.873Z,17.03
2023-03-24T00:59:29.670Z,17.75
2023-03-24T01:04:31.661Z,15.68
2023-03-24T01:09:36.392Z,17.13
2023-03-24T01:14:43.414Z,16.27
2023-03-24T01:19:45.696Z,19.73
2023-03-24T01:24:53.306Z,19.90
2023-03-24T01:30:01.715Z,17.67
2023-03-24T01:35:03.794Z,18.10
2023-03-24T01:40:10.151Z,17.70
2023-03-24T01:45:53.727Z,17.23
2023-03-24T01:51:03.399Z,18.07
2023-03-24T01:56:06.944Z,19.00
2023-03-24T02:01:17.587Z,17.63
2023-03-24T02:06:28.130Z,23.20
2023-03-24T02:11:34.438Z,21.40
2023-03-24T02:16:49.637Z,19.70
2023-03-24T02:22:32.841Z,15.33
2023-03-24T02:27:58.702Z,16.57
2023-03-24T02:33:23.344Z,19.00
2023-03-24T02:38:43.717Z,16.53
2023-03-24T02:44:06.691Z,17.07
2023-03-24T02:49:27.841Z,18.87
2023-03-24T02:54:48.459Z,15.33
2023-03-24T02:59:55.320Z,21.83
2023-03-24T03:05:28.193Z,17.52
2023-03-24T03:10:33.757Z,15.07
2023-03-24T03:15:44.717Z,13.68
2023-03-24T03:20:53.776Z,19.00
2023-03-24T03:26:09.820Z,15.82
2023-03-24T03:31:17.131Z,18.17
2023-03-24T03:36:46.473Z,16.02
2023-03-24T03:41:50.982Z,14.63
2023-03-24T03:46:53.259Z,17.65
2023-03-24T03:52:04.099Z,17.48
2023-03-24T03:57:09.132Z,15.00
2023-03-24T04:02:52.758Z,12.67
2023-03-24T04:07:58.131Z,15.15
2023-03-24T04:13:38.400Z,13.63
2023-03-24T04:19:25.458Z,12.87
2023-03-24T04:24:50.075Z,11.97
2023-03-24T04:30:02.554Z,9.70
2023-03-24T04:35:10.433Z,10.07
2023-03-24T04:40:33.167Z,10.23
2023-03-24T04:45:37.443Z,8.65
2023-03-24T04:51:03.331Z,6.15
2023-03-24T04:56:37.997Z,9.77
2023-03-24T05:01:50.072Z,5.80
2023-03-24T05:07:07.794Z,6.60
2023-03-24T05:12:09.857Z,6.50
2023-03-24T05:17:36.169Z,6.63
2023-03-24T05:22:38.924Z,9.70
2023-03-24T05:27:43.266Z,6.90
2023-03-24T05:32:57.142Z,8.70
2023-03-24T05:38:01.728Z,6.93
2023-03-24T05:43:03.745Z,6.00
2023-03-24T05:48:09.668Z,7.00
2023-03-24T05:53:31.675Z,10.63
2023-03-24T05:58:47.473Z,7.50
2023-03-24T06:03:50.043Z,9.87
2023-03-24T06:08:54.805Z,9.20
2023-03-24T06:14:00.523Z,12.10
2023-03-24T06:19:06.847Z,13.90
2023-03-24T06:24:27.276Z,6.17
2023-03-24T06:29:42.353Z,14.00
2023-03-24T06:34:52.811Z,10.97
2023-03-24T06:40:19.635Z,10.57
2023-03-24T06:45:28.628Z,14.32
2023-03-24T06:50:35.657Z,11.50
2023-03-24T06:55:43.596Z,13.13
2023-03-24T07:00:55.324Z,10.80
2023-03-24T07:06:40.449Z,12.60
2023-03-24T07:11:57.558Z,14.80
2023-03-24T07:16:59.772Z,12.52
2023-03-24T07:22:11.255Z,10.20
2023-03-24T07:27:34.824Z,13.27
2023-03-24T07:32:39.364Z,14.37
2023-03-24T07:37:43.473Z,12.45
2023-03-24T07:42:45.593Z,13.05
2023-03-24T07:48:05.862Z,21.60
2023-03-24T07:53:11.260Z,12.18
2023-03-24T07:58:15.593Z,14.50
2023-03-24T08:03:34.234Z,17.20
2023-03-24T08:09:10.418Z,17.03
2023-03-24T08:14:18.403Z,15.00
2023-03-24T08:19:23.971Z,12.57
2023-03-24T08:24:37.762Z,8.57
2023-03-24T08:29:42.950Z,15.93
2023-03-24T08:34:48.626Z,11.48
2023-03-24T08:39:54.883Z,17.73
2023-03-24T08:45:02.761Z,11.32
2023-03-24T08:50:11.417Z,14.50
2023-03-24T08:55:18.420Z,12.77
2023-03-24T09:00:29.421Z,15.83
2023-03-24T09:05:43.869Z,18.58
2023-03-24T09:10:51.790Z,7.82
2023-03-24T09:15:59.272Z,14.68
2023-03-24T09:21:02.204Z,19.48
2023-03-24T09:26:09.461Z,15.93
2023-03-24T09:31:15.598Z,20.70
2023-03-24T09:36:22.345Z,12.43
2023-03-24T09:41:31.875Z,15.15
2023-03-24T09:46:39.612Z,21.55
2023-03-24T09:51:45.212Z,20.73
2023-03-24T09:56:48.745Z,18.88
2023-03-24T10:01:54.866Z,10.25
2023-03-24T10:07:13.422Z,17.23
2023-03-24T10:12:48.779Z,20.80
2023-03-24T10:18:12.017Z,13.95
2023-03-24T10:23:39.458Z,17.33
2023-03-24T10:29:05.599Z,10.30
2023-03-24T10:34:15.743Z,16.13
2023-03-24T10:39:26.307Z,17.13
2023-03-24T10:44:40.503Z,17.17
2023-03-24T10:49:56.484Z,13.93
2023-03-24T10:55:06.605Z,14.68
2023-03-24T11:00:27.385Z,11.15
2023-03-24T11:05:37.180Z,16.90
2023-03-24T11:10:41.917Z,17.38
2023-03-24T11:16:06.288Z,13.23
2023-03-24T11:21:08.880Z,11.77
2023-03-24T11:26:21.943Z,13.35
2023-03-24T11:31:31.200Z,14.07
2023-03-24T11:36:40.325Z,11.18
2023-03-24T11:41:56.274Z,10.23
2023-03-24T11:47:09.711Z,8.80
2023-03-24T11:52:31.210Z,12.60
2023-03-24T11:57:55.071Z,14.40
2023-03-24T12:03:33.426Z,10.48
2023-03-24T12:08:57.444Z,12.18
2023-03-24T12:14:02.292Z,10.48
2023-03-24T12:19:26.833Z,11.95
2023-03-24T12:24:53.743Z,11.60
2023-03-24T12:30:07.039Z,15.27
2023-03-24T12:35:27.376Z,10.30
2023-03-24T12:40:46.855Z,15.70
2023-03-24T12:46:00.325Z,12.13
2023-03-24T12:51:12.267Z,12.40
2023-03-24T12:56:19.508Z,8.02
2023-03-24T13:01:21.917Z,10.27
2023-03-24T13:06:53.550Z,11.23
2023-03-24T13:12:08.095Z,13.85
2023-03-24T13:17:24.405Z,10.05
2023-03-24T13:22:28.576Z,12.35
2023-03-24T13:27:39.871Z,11.90
2023-03-24T13:32:49.666Z,9.77
2023-03-24T13:38:15.175Z,10.52
2023-03-24T13:43:27.347Z,13.85
2023-03-24T13:48:37.900Z,6.90
2023-03-24T13:53:47.896Z,11.00
2023-03-24T13:59:10.387Z,4.72
2023-03-24T14:04:19.356Z,9.88
2023-03-24T14:09:28.369Z,7.80
2023-03-24T14:14:35.559Z,11.50
2023-03-24T14:20:02.672Z,12.60
2023-03-24T14:25:32.449Z,13.65
2023-03-24T14:30:40.303Z,13.40
2023-03-24T14:35:46.689Z,8.82
2023-03-24T14:41:00.718Z,8.93
2023-03-24T14:46:06.796Z,11.05
2023-03-24T14:51:40.562Z,13.32
2023-03-24T14:56:48.377Z,11.45
2023-03-24T15:01:55.628Z,8.55
2023-03-24T15:07:01.011Z,8.77
2023-03-24T15:12:08.552Z,6.95
2023-03-24T15:17:24.784Z,9.13
2023-03-24T15:22:42.185Z,10.65
2023-03-24T15:27:52.649Z,7.15
2023-03-24T15:32:55.013Z,11.25
2023-03-24T15:37:57.309Z,11.38
2023-03-24T15:43:03.465Z,9.20
2023-03-24T15:48:15.667Z,11.95
2023-03-24T15:53:17.396Z,15.00
2023-03-24T15:58:24.583Z,8.77
2023-03-24T16:03:30.634Z,9.50
2023-03-24T16:08:39.242Z,8.68
2023-03-24T16:13:43.268Z,15.35
2023-03-24T16:18:47.159Z,9.98
2023-03-24T16:23:50.433Z,13.05
2023-03-24T16:28:57.004Z,9.38
2023-03-24T16:33:59.333Z,11.48
2023-03-24T16:39:01.730Z,12.80
2023-03-24T16:44:06.225Z,13.98
2023-03-24T16:49:10.431Z,11.50
2023-03-24T16:54:12.262Z,10.50
2023-03-24T16:59:14.838Z,11.05
2023-03-24T17:04:21.197Z,16.35
2023-03-24T17:09:28.628Z,13.38
2023-03-24T17:14:32.764Z,9.02
2023-03-24T17:19:38.270Z,9.55
2023-03-24T17:24:42.753Z,12.38
2023-03-24T17:29:46.534Z,11.77
2023-03-24T17:34:50.994Z,9.77
2023-03-24T17:39:55.764Z,15.82
2023-03-24T17:44:57.465Z,13.85
2023-03-24T17:49:59.792Z,15.10
2023-03-24T17:55:04.461Z,9.48
2023-03-24T18:00:10.262Z,8.93
2023-03-24T18:05:15.898Z,6.68
2023-03-24T18:10:20.366Z,12.35
2023-03-24T18:15:22.141Z,7.15
2023-03-24T18:20:26.570Z,11.55
2023-03-24T18:25:31.500Z,7.05
2023-03-24T18:30:36.266Z,8.75
2023-03-24T18:35:43.161Z,10.25
2023-03-24T18:40:45.163Z,6.17
2023-03-24T18:45:50.569Z,8.48
2023-03-24T18:50:52.926Z,11.93
2023-03-24T18:55:57.185Z,7.63
2023-03-24T19:01:06.890Z,9.35
2023-03-24T19:06:10.629Z,11.85
2023-03-24T19:11:16.040Z,16.30
2023-03-24T19:16:21.167Z,7.67
2023-03-24T19:21:24.471Z,6.33
2023-03-24T19:26:26.247Z,7.63
2023-03-24T19:31:30.601Z,5.97
2023-03-24T19:36:34.554Z,9.87
2023-03-24T19:41:36.522Z,11.87
2023-03-24T19:46:38.740Z,8.17
2023-03-24T19:51:40.818Z,14.10
2023-03-24T19:56:43.229Z,7.47
2023-03-24T20:01:45.071Z,9.97
2023-03-24T20:06:46.836Z,7.63
2023-03-24T20:11:48.710Z,8.33
2023-03-24T20:16:52.849Z,8.17
2023-03-24T20:21:54.703Z,7.37
2023-03-24T20:26:56.690Z,7.60
2023-03-24T20:32:01.094Z,6.23
2023-03-24T20:37:02.808Z,8.37
2023-03-24T20:42:06.894Z,8.43
2023-03-24T20:47:11.287Z,7.23
2023-03-24T20:52:16.179Z,7.40
2023-03-24T20:57:20.258Z,9.00
2023-03-24T21:02:24.829Z,8.10
2023-03-24T21:07:29.295Z,12.73
2023-03-24T21:12:34.148Z,7.67
2023-03-24T21:17:35.967Z,8.47
2023-03-24T21:22:56.226Z,11.97
2023-03-24T21:27:58.525Z,7.20
2023-03-24T21:33:02.835Z,7.47
2023-03-24T21:38:05.733Z,8.70
2023-03-24T21:43:07.490Z,9.93
2023-03-24T21:48:14.165Z,10.73
2023-03-24T21:53:19.002Z,12.50
2023-03-24T21:58:22.948Z,8.30
2023-03-24T22:03:25.762Z,8.00
2023-03-24T22:08:30.531Z,11.47
2023-03-24T22:13:34.809Z,11.50
2023-03-24T22:18:41.508Z,9.80
2023-03-24T22:23:43.564Z,6.60
2023-03-24T22:28:50.803Z,7.67
2023-03-24T22:33:53.550Z,11.43
2023-03-24T22:39:00.396Z,12.20
2023-03-24T22:44:04.848Z,11.10
2023-03-24T22:49:06.537Z,8.00
2023-03-24T22:54:08.530Z,10.50
2023-03-24T22:59:10.758Z,11.50
2023-03-24T23:04:12.580Z,9.07
2023-03-24T23:09:14.666Z,13.93
2023-03-24T23:14:18.357Z,12.03
2023-03-24T23:19:25.065Z,8.73
2023-03-24T23:24:29.185Z,8.80
2023-03-24T23:29:31.458Z,5.83
2023-03-24T23:34:34.993Z,10.90
2023-03-24T23:39:39.291Z,10.10
2023-03-24T23:44:43.075Z,11.77
2023-03-24T23:49:47.025Z,9.53
2023-03-24T23:54:48.663Z,11.33
2023-03-24T23:59:54.977Z,15.60
